Maran Hermione — SVCO3 — position and weather

sailwx.info

Track history (hours):
 
Tides and Currents Weather Stations Pressure Air Temp Water Temp Dewpoint Dewpoint Depression Visibility Wind Speed Wind Dir Waves Ship Positions

Maran Hermione

Last reported at 2018-May-23 18:45 UTC. Time now 2018-Jun-19 02:35 UTC.
Position N 07°01' W 015°58'.
Warning: this ship's position is 26 days out of date.

Length 274 m; draft 9.3 m.

Type: Tanker. MMSI: 241490000.

Date/timePositionNaut miles runAvg speedWind from/ knotsBaromVisibWave heightAir tempDewpointWater temp
2018-May-23 18:45N 07°01' W 015°58'311.9
2018-May-23 18:28N 07°03' W 016°00'611.8
2018-May-23 17:59N 07°08' W 016°03'611.9
2018-May-23 17:30N 07°13' W 016°07'811.9
2018-May-23 16:51N 07°19' W 016°11'2311.8
2018-May-23 14:55N 07°37' W 016°25'511.5
2018-May-23 14:30N 07°41' W 016°28'611.6
2018-May-23 14:00N 07°46' W 016°32'611.9
2018-May-23 13:30N 07°51' W 016°35'611.9
2018-May-23 13:00N 07°55' W 016°38'811.6
2018-May-23 12:19N 08°02' W 016°43'311.3
2018-May-23 12:00N 08°05' W 016°45'611.5
2018-May-23 11:30N 08°09' W 016°49'611.7
2018-May-23 11:00N 08°14' W 016°53'611.6
2018-May-23 10:30N 08°18' W 016°56'711.6
2018-May-23 09:56N 08°23' W 017°01'511.6
2018-May-23 09:30N 08°27' W 017°04'611.7
2018-May-23 09:00N 08°32' W 017°07'611.6
2018-May-23 08:30N 08°37' W 017°09'611.6
2018-May-23 08:00N 08°42' W 017°13'611.5
2018-May-23 07:30N 08°47' W 017°16'611.7
2018-May-23 07:00N 08°51' W 017°20'711.6
2018-May-23 06:26N 08°57' W 017°24'511.5
2018-May-23 06:00N 09°01' W 017°26'611.4
2018-May-23 05:30N 09°06' W 017°30'611.6
2018-May-23 05:00N 09°10' W 017°33'611.6
2018-May-23 04:29N 09°15' W 017°37'611.4
2018-May-23 04:00N 09°20' W 017°40'611.3
2018-May-23 03:30N 09°24' W 017°44'611.5
2018-May-23 03:00N 09°29' W 017°47'611.4
2018-May-23 02:30N 09°33' W 017°50'611.4
2018-May-23 01:59N 09°38' W 017°54'1911.4
2018-May-23 00:17N 09°54' W 018°06'311.5
2018-May-22 23:59N 09°57' W 018°07'511.3
2018-May-22 23:30N 10°01' W 018°10'611.5
2018-May-22 23:00N 10°07' W 018°10'611.8
2018-May-22 22:30N 10°13' W 018°11'611.7
2018-May-22 22:00N 10°19' W 018°11'6811.9
2018-May-22 16:18N 11°27' W 018°16'1112.0
2018-May-22 15:21N 11°38' W 018°17'412.1
2018-May-22 15:00N 11°42' W 018°17'612.2
2018-May-22 14:30N 11°48' W 018°17'1912.0
2018-May-22 12:57N 12°07' W 018°18'711.9
2018-May-22 12:23N 12°14' W 018°19'611.8
2018-May-22 11:53N 12°19' W 018°19'511.8
2018-May-22 11:30N 12°24' W 018°19'611.8
2018-May-22 11:00N 12°30' W 018°20'611.8
2018-May-22 10:29N 12°36' W 018°20'  
2018-May-19 06:25N 27°41' W 015°15'513.2
2018-May-19 06:00N 27°45' W 015°12'713.2
2018-May-19 05:29N 27°51' W 015°08'613.2
2018-May-19 05:00N 27°57' W 015°05'613.1
2018-May-19 04:30N 28°03' W 015°03'713.1
2018-May-19 04:01N 28°10' W 015°00'712.8
2018-May-19 03:29N 28°16' W 014°58'612.5
2018-May-19 03:00N 28°21' W 014°55'612.9
2018-May-19 02:31N 28°27' W 014°52'713.3
2018-May-19 02:00N 28°34' W 014°49'713.2
2018-May-19 01:29N 28°40' W 014°46'  
2018-May-15 14:20N 35°49' W 006°55'2 5.0
2018-May-15 14:00N 35°49' W 006°57'2 4.7
2018-May-15 13:31N 35°50' W 006°54'3 6.8
2018-May-15 13:00N 35°49' W 006°50'4 6.9
2018-May-15 12:29N 35°49' W 006°46'5 9.2
2018-May-15 12:00N 35°48' W 006°40'612.5
2018-May-15 11:30N 35°47' W 006°33'511.0
2018-May-15 11:00N 35°43' W 006°28'3 6.3
2018-May-15 10:31N 35°43' W 006°24'2 4.7
2018-May-15 10:00N 35°44' W 006°27'3 5.5
2018-May-15 09:30N 35°45' W 006°30'3 5.4
2018-May-15 09:01N 35°46' W 006°33'3 5.5
2018-May-15 08:30N 35°47' W 006°36'3 5.6
2018-May-15 08:00N 35°48' W 006°40'3 5.6
2018-May-15 07:31N 35°48' W 006°43'52 1.5
2018-May-13 20:35N 36°13' W 007°40'  
Track history (hours):
 
Tides and Currents Weather Stations Pressure Air Temp Water Temp Dewpoint Dewpoint Depression Visibility Wind Speed Wind Dir Waves Ship Positions

Maran Hermione

Last reported at 2018-May-23 18:45 UTC. Time now 2018-Jun-19 02:35 UTC.
Position N 07°01' W 015°58'.
Warning: this ship's position is 26 days out of date.

Length 274 m; draft 9.3 m.

Type: Tanker. MMSI: 241490000.

Date/timePositionNaut miles runAvg speedWind from/ knotsBaromVisibWave heightAir tempDewpointWater temp
2018-May-23 18:45N 07°01' W 015°58'311.9
2018-May-23 18:28N 07°03' W 016°00'611.8
2018-May-23 17:59N 07°08' W 016°03'611.9
2018-May-23 17:30N 07°13' W 016°07'811.9
2018-May-23 16:51N 07°19' W 016°11'2311.8
2018-May-23 14:55N 07°37' W 016°25'511.5
2018-May-23 14:30N 07°41' W 016°28'611.6
2018-May-23 14:00N 07°46' W 016°32'611.9
2018-May-23 13:30N 07°51' W 016°35'611.9
2018-May-23 13:00N 07°55' W 016°38'811.6
2018-May-23 12:19N 08°02' W 016°43'311.3
2018-May-23 12:00N 08°05' W 016°45'611.5
2018-May-23 11:30N 08°09' W 016°49'611.7
2018-May-23 11:00N 08°14' W 016°53'611.6
2018-May-23 10:30N 08°18' W 016°56'711.6
2018-May-23 09:56N 08°23' W 017°01'511.6
2018-May-23 09:30N 08°27' W 017°04'611.7
2018-May-23 09:00N 08°32' W 017°07'611.6
2018-May-23 08:30N 08°37' W 017°09'611.6
2018-May-23 08:00N 08°42' W 017°13'611.5
2018-May-23 07:30N 08°47' W 017°16'611.7
2018-May-23 07:00N 08°51' W 017°20'711.6
2018-May-23 06:26N 08°57' W 017°24'511.5
2018-May-23 06:00N 09°01' W 017°26'611.4
2018-May-23 05:30N 09°06' W 017°30'611.6
2018-May-23 05:00N 09°10' W 017°33'611.6
2018-May-23 04:29N 09°15' W 017°37'611.4
2018-May-23 04:00N 09°20' W 017°40'611.3
2018-May-23 03:30N 09°24' W 017°44'611.5
2018-May-23 03:00N 09°29' W 017°47'611.4
2018-May-23 02:30N 09°33' W 017°50'611.4
2018-May-23 01:59N 09°38' W 017°54'1911.4
2018-May-23 00:17N 09°54' W 018°06'311.5
2018-May-22 23:59N 09°57' W 018°07'511.3
2018-May-22 23:30N 10°01' W 018°10'611.5
2018-May-22 23:00N 10°07' W 018°10'611.8
2018-May-22 22:30N 10°13' W 018°11'611.7
2018-May-22 22:00N 10°19' W 018°11'6811.9
2018-May-22 16:18N 11°27' W 018°16'1112.0
2018-May-22 15:21N 11°38' W 018°17'412.1
2018-May-22 15:00N 11°42' W 018°17'612.2
2018-May-22 14:30N 11°48' W 018°17'1912.0
2018-May-22 12:57N 12°07' W 018°18'711.9
2018-May-22 12:23N 12°14' W 018°19'611.8
2018-May-22 11:53N 12°19' W 018°19'511.8
2018-May-22 11:30N 12°24' W 018°19'611.8
2018-May-22 11:00N 12°30' W 018°20'611.8
2018-May-22 10:29N 12°36' W 018°20'  
2018-May-19 06:25N 27°41' W 015°15'513.2
2018-May-19 06:00N 27°45' W 015°12'713.2
2018-May-19 05:29N 27°51' W 015°08'613.2
2018-May-19 05:00N 27°57' W 015°05'613.1
2018-May-19 04:30N 28°03' W 015°03'713.1
2018-May-19 04:01N 28°10' W 015°00'712.8
2018-May-19 03:29N 28°16' W 014°58'612.5
2018-May-19 03:00N 28°21' W 014°55'612.9
2018-May-19 02:31N 28°27' W 014°52'713.3
2018-May-19 02:00N 28°34' W 014°49'713.2
2018-May-19 01:29N 28°40' W 014°46'  
2018-May-15 14:20N 35°49' W 006°55'2 5.0
2018-May-15 14:00N 35°49' W 006°57'2 4.7
2018-May-15 13:31N 35°50' W 006°54'3 6.8
2018-May-15 13:00N 35°49' W 006°50'4 6.9
2018-May-15 12:29N 35°49' W 006°46'5 9.2
2018-May-15 12:00N 35°48' W 006°40'612.5
2018-May-15 11:30N 35°47' W 006°33'511.0
2018-May-15 11:00N 35°43' W 006°28'3 6.3
2018-May-15 10:31N 35°43' W 006°24'2 4.7
2018-May-15 10:00N 35°44' W 006°27'3 5.5
2018-May-15 09:30N 35°45' W 006°30'3 5.4
2018-May-15 09:01N 35°46' W 006°33'3 5.5
2018-May-15 08:30N 35°47' W 006°36'3 5.6
2018-May-15 08:00N 35°48' W 006°40'3 5.6
2018-May-15 07:31N 35°48' W 006°43'52 1.5
2018-May-13 20:35N 36°13' W 007°40'  

Dump ship's entire track history